Jackson, MS

6:50 PM CST on February 13, 2016 (GMT -0600)
Jackson-Evers International | | Change Station
CLOSE
Current Station
Airport
Location: Jackson,
Elevation: 328 ft
Nearby Weather Stations

Elev 328 ft 32.32 °N, 90.08 °W | Updated 56 minutes ago

Clear
Clear
47 °F
Feels Like 47 °F
N
6
Wind Variable Wind from NNE

Today
High -- | Low -- °F
--% Chance of Precip.
Yesterday
High -- | Low -- °F
Precip. -- in
Pressure 30.36 in
Visibility 10.0 miles
Clouds Clear
Dew Point 19 °F
Humidity 33%
Rainfall 0.00 in
Snow Depth Not available.
6:45 AM 5:44 PM
Waxing Crescent, 36% visible
METAR KJAN 132354Z 02005KT 10SM CLR 08/M07 A3036 RMK AO2 SLP281 T00831072 10117 20083 56013
Pressure 30.36 in
Visibility 10.0 miles
Clouds Clear
Dew Point 19 °F
Humidity 33%
Rainfall 0.00 in
Snow Depth Not available.
6:45 AM 5:44 PM
Waxing Crescent, 36% visible
METAR KJAN 132354Z 02005KT 10SM CLR 08/M07 A3036 RMK AO2 SLP281 T00831072 10117 20083 56013

10-Day Weather Forecast

Almanac

Astronomy

Feb. 13, 2016 Rise Set
Actual Time
Civil Twilight
Nautical Twilight
Astronomical Twilight
Moon
Length of Visible Light
Length of Day
Tomorrow will be .
, % of the Moon is Illuminated

Today's Extremes

State Highs State Lows

Community

WunderPhotos

Upload Photos

1,892,715 photos uploaded!

WunderBlog® & News

Nearby

Air Quality

  Air Quality AQ Index Pollutant
Not available.

Snow Depth

Station Depth Elevation

Earthquake Activity

City Distance Mag. Time & Date
Minimum magnitude displayed is 2.5.

Coastal Water Temperatures

Place Temperature

Stations

Nearby Weather Stations

Station Location Temp. Windchill Dew Point Humidity Wind Precip. Elev Updated Type
                   

Watches & Warnings

There are currently no watches in effect.